Time;durP1;ratioP1;P1;durP2;ratioP2;P2;SDS_P1;SDS_P2;PMS_P1;PMS_P2;Temp;Humidity;BMP_temperature;BMP_pressure;BME280_temperature;BME280_humidity;BME280_pressure;Samples;Min_cycle;Max_cycle;Signal;HPM_P1;HPM_P2
2022/07/29 00:01:35;;;;;;;5.63;2.60;;;15.10;99.90;;;;;;4995616;28;20531;-51
2022/07/29 00:04:03;;;;;;;6.87;2.40;;;15.00;99.90;;;;;;4999058;28;20487;-51
2022/07/29 00:06:30;;;;;;;3.97;2.50;;;15.00;99.90;;;;;;4990042;28;20464;-50
2022/07/29 00:08:56;;;;;;;2.40;2.20;;;15.00;99.90;;;;;;4990237;28;20516;-50
2022/07/29 00:11:23;;;;;;;6.47;4.33;;;15.00;99.90;;;;;;4992777;28;20467;-50
2022/07/29 00:13:49;;;;;;;6.03;2.90;;;15.00;99.90;;;;;;4993926;28;20488;-51
2022/07/29 00:16:16;;;;;;;7.57;2.73;;;15.00;99.90;;;;;;4989097;28;20881;-51
2022/07/29 00:18:42;;;;;;;6.60;2.60;;;14.90;99.90;;;;;;4989158;28;20519;-50
2022/07/29 00:21:11;;;;;;;2.50;2.10;;;14.90;99.90;;;;;;4991632;28;20514;-50
2022/07/29 00:23:37;;;;;;;8.03;3.10;;;14.90;99.90;;;;;;4989887;28;20489;-51
2022/07/29 00:26:04;;;;;;;3.23;2.40;;;14.90;99.90;;;;;;4990077;28;20970;-50
2022/07/29 00:28:30;;;;;;;2.90;2.40;;;14.80;99.90;;;;;;4988067;28;20464;-51
2022/07/29 00:30:57;;;;;;;3.37;3.03;;;14.80;99.90;;;;;;4996390;28;20577;-51
2022/07/29 00:33:23;;;;;;;4.10;2.70;;;14.80;99.90;;;;;;4994246;28;20476;-51
2022/07/29 00:35:49;;;;;;;6.47;3.03;;;14.80;99.90;;;;;;4995950;28;20469;-49
2022/07/29 00:38:19;;;;;;;4.57;2.67;;;14.80;99.90;;;;;;4991334;28;20504;-50
2022/07/29 00:40:46;;;;;;;5.50;2.80;;;14.80;99.90;;;;;;4989450;28;20300;-51
2022/07/29 00:43:14;;;;;;;4.67;2.87;;;14.70;99.90;;;;;;4993459;28;20480;-51
2022/07/29 00:45:41;;;;;;;6.93;3.10;;;14.70;99.90;;;;;;4997406;28;20922;-51
2022/07/29 00:48:08;;;;;;;4.30;2.50;;;14.70;99.90;;;;;;4995143;28;20464;-50
2022/07/29 00:50:35;;;;;;;4.57;2.60;;;14.70;99.90;;;;;;4993938;28;20518;-50
2022/07/29 00:53:04;;;;;;;6.20;2.73;;;14.70;99.90;;;;;;4991811;28;20479;-50
2022/07/29 00:55:32;;;;;;;2.73;2.27;;;14.60;99.90;;;;;;4992296;28;20893;-50
2022/07/29 00:57:59;;;;;;;6.67;3.07;;;14.60;99.90;;;;;;4994036;28;20539;-50
2022/07/29 01:00:27;;;;;;;6.87;2.83;;;14.60;99.90;;;;;;4991390;28;20515;-50
2022/07/29 01:02:54;;;;;;;6.20;2.47;;;14.60;99.90;;;;;;4998722;28;20548;-50
2022/07/29 01:05:23;;;;;;;5.03;2.33;;;14.60;99.90;;;;;;4992598;28;20528;-50
2022/07/29 01:07:53;;;;;;;10.43;2.97;;;14.60;99.90;;;;;;4993165;28;21288;-51
2022/07/29 01:10:21;;;;;;;3.53;2.47;;;14.50;99.90;;;;;;4992548;28;20489;-50
2022/07/29 01:12:51;;;;;;;6.60;2.80;;;14.50;99.90;;;;;;4991071;28;20895;-51
2022/07/29 01:15:18;;;;;;;4.40;2.53;;;14.50;99.90;;;;;;4998106;28;20530;-51
2022/07/29 01:17:51;;;;;;;4.90;3.10;;;14.50;99.90;;;;;;4994443;28;20496;-51
2022/07/29 01:20:24;;;;;;;2.80;2.53;;;14.40;99.90;;;;;;4991954;28;20487;-51
2022/07/29 01:23:22;;;;;;;3.53;2.20;;;14.40;99.90;;;;;;4988750;28;20488;-50
2022/07/29 01:26:05;;;;;;;6.73;2.83;;;14.30;99.90;;;;;;4992877;28;20496;-52
2022/07/29 01:29:13;;;;;;;7.87;2.87;;;14.30;99.90;;;;;;4990639;28;20468;-51
2022/07/29 01:31:45;;;;;;;6.30;2.37;;;14.30;99.90;;;;;;4976386;28;20488;-51
2022/07/29 01:34:18;;;;;;;6.93;4.00;;;14.30;99.90;;;;;;4991880;28;20631;-50
2022/07/29 01:36:49;;;;;;;5.63;2.87;;;14.30;99.90;;;;;;4993408;28;20507;-50
2022/07/29 01:39:24;;;;;;;6.40;2.40;;;14.30;99.90;;;;;;4991068;28;20555;-50
2022/07/29 01:41:58;;;;;;;6.73;2.57;;;14.30;99.90;;;;;;4990198;28;20970;-51
2022/07/29 01:44:31;;;;;;;8.53;2.83;;;14.20;99.90;;;;;;4993360;28;20527;-49
2022/07/29 01:47:05;;;;;;;2.47;2.27;;;14.20;99.90;;;;;;4993359;28;20549;-52
2022/07/29 01:49:37;;;;;;;2.63;2.40;;;14.20;99.90;;;;;;4984565;28;20464;-51
2022/07/29 01:52:09;;;;;;;10.07;2.57;;;14.20;99.90;;;;;;4988771;28;20559;-50
2022/07/29 01:54:42;;;;;;;6.33;2.67;;;14.20;99.90;;;;;;4989137;28;20566;-50
2022/07/29 01:57:11;;;;;;;4.07;2.67;;;14.20;99.90;;;;;;4987744;28;20464;-50
2022/07/29 01:59:39;;;;;;;4.63;2.60;;;14.10;99.90;;;;;;4994225;28;20496;-51
2022/07/29 02:02:10;;;;;;;3.23;2.93;;;14.20;99.90;;;;;;4989415;28;20500;-49
2022/07/29 02:04:38;;;;;;;5.50;2.60;;;14.10;99.90;;;;;;4990353;28;20512;-51
2022/07/29 02:07:07;;;;;;;3.53;2.30;;;14.10;99.90;;;;;;4990284;28;20495;-51
2022/07/29 02:09:37;;;;;;;2.97;2.23;;;14.10;99.90;;;;;;4988955;28;20503;-50
2022/07/29 02:12:07;;;;;;;7.10;2.77;;;14.10;99.90;;;;;;4995431;28;20469;-51
2022/07/29 02:14:36;;;;;;;8.20;2.93;;;14.10;99.90;;;;;;4985567;28;20867;-51
2022/07/29 02:17:04;;;;;;;4.83;3.30;;;14.10;99.90;;;;;;4992162;28;21002;-50
2022/07/29 02:19:34;;;;;;;3.50;2.23;;;14.10;99.90;;;;;;4990084;28;20888;-50
2022/07/29 02:22:02;;;;;;;6.03;2.63;;;14.00;99.90;;;;;;4991874;28;21227;-50
2022/07/29 02:24:30;;;;;;;5.57;2.50;;;14.00;99.90;;;;;;4989728;28;20524;-51
2022/07/29 02:26:59;;;;;;;4.53;2.10;;;14.00;99.90;;;;;;4998111;28;20542;-51
2022/07/29 02:29:29;;;;;;;4.20;2.37;;;14.00;99.90;;;;;;4992584;28;20460;-51
2022/07/29 02:31:59;;;;;;;5.20;2.37;;;14.00;99.90;;;;;;4992931;28;20515;-49
2022/07/29 02:34:27;;;;;;;7.30;2.63;;;14.00;99.90;;;;;;4987784;28;20524;-49
2022/07/29 02:36:57;;;;;;;4.23;2.50;;;14.00;99.90;;;;;;4994617;28;20967;-50
2022/07/29 02:39:26;;;;;;;3.90;2.80;;;14.00;99.90;;;;;;4990069;28;20456;-51
2022/07/29 02:41:56;;;;;;;3.27;2.43;;;14.00;99.90;;;;;;4987966;28;20491;-50
2022/07/29 02:44:26;;;;;;;5.23;2.50;;;14.00;99.90;;;;;;4991194;28;20512;-51
2022/07/29 02:46:59;;;;;;;3.50;2.10;;;13.90;99.90;;;;;;4987869;28;20488;-50
2022/07/29 02:49:36;;;;;;;16.00;2.60;;;13.90;99.90;;;;;;4985435;28;20499;-51
2022/07/29 02:52:07;;;;;;;3.90;2.40;;;13.90;1.40;;;;;;4988955;28;20570;-51
2022/07/29 02:54:40;;;;;;;4.20;2.60;;;13.80;99.90;;;;;;4985474;28;20516;-50
2022/07/29 02:57:15;;;;;;;4.17;2.17;;;13.80;99.90;;;;;;4991700;28;20503;-51
2022/07/29 02:59:44;;;;;;;3.90;2.60;;;13.90;99.90;;;;;;4981473;28;20546;-51
2022/07/29 03:02:12;;;;;;;5.93;2.87;;;13.80;99.90;;;;;;4990066;28;20948;-50
2022/07/29 03:04:42;;;;;;;3.90;2.47;;;13.80;99.90;;;;;;4989679;28;20503;-50
2022/07/29 03:07:12;;;;;;;7.00;2.67;;;13.80;99.90;;;;;;4992184;28;20492;-49
2022/07/29 03:09:39;;;;;;;2.67;2.47;;;13.80;99.90;;;;;;4989038;28;20488;-50
2022/07/29 03:12:07;;;;;;;6.17;2.70;;;13.80;99.90;;;;;;4991546;28;20512;-50
2022/07/29 03:14:34;;;;;;;5.03;2.07;;;13.80;99.90;;;;;;4990456;28;20512;-51
2022/07/29 03:17:01;;;;;;;4.97;2.47;;;13.80;99.90;;;;;;4991242;28;20460;-51
2022/07/29 03:19:28;;;;;;;5.27;2.17;;;13.80;99.90;;;;;;4992975;28;21016;-51
2022/07/29 03:21:57;;;;;;;4.27;2.13;;;13.80;99.90;;;;;;4991321;28;20520;-51
2022/07/29 03:24:30;;;;;;;6.30;2.80;;;13.80;99.90;;;;;;4986639;28;20523;-50
2022/07/29 03:26:57;;;;;;;6.00;2.90;;;13.80;99.90;;;;;;4990707;28;20531;-51
2022/07/29 03:29:24;;;;;;;2.67;2.20;;;13.80;99.90;;;;;;4991122;28;20461;-51
2022/07/29 03:31:51;;;;;;;3.57;2.13;;;13.80;99.90;;;;;;4985208;28;20491;-50
2022/07/29 03:34:17;;;;;;;2.53;2.30;;;13.80;99.90;;;;;;4994480;28;20527;-50
2022/07/29 03:36:44;;;;;;;4.17;2.40;;;13.80;99.90;;;;;;4996676;28;20491;-50
2022/07/29 03:39:13;;;;;;;6.00;2.33;;;13.80;1.40;;;;;;4995155;28;20504;-50
2022/07/29 03:41:43;;;;;;;4.23;3.10;;;13.90;99.90;;;;;;4998439;28;20896;-50
2022/07/29 03:44:11;;;;;;;6.53;2.60;;;13.80;99.90;;;;;;4994241;28;20508;-51
2022/07/29 03:46:40;;;;;;;5.00;2.47;;;13.90;99.90;;;;;;4990398;28;20492;-50
2022/07/29 03:49:08;;;;;;;3.63;2.77;;;13.90;99.90;;;;;;4991940;28;20504;-50
2022/07/29 03:51:36;;;;;;;5.43;3.30;;;13.90;99.90;;;;;;4996219;28;20487;-51
2022/07/29 03:54:03;;;;;;;4.30;2.63;;;13.80;99.90;;;;;;5001613;28;21062;-51
2022/07/29 03:56:33;;;;;;;2.87;2.33;;;13.80;99.90;;;;;;5002366;28;20901;-50
2022/07/29 03:59:03;;;;;;;2.43;2.20;;;13.90;99.90;;;;;;4994189;28;21133;-50
2022/07/29 04:01:31;;;;;;;9.57;3.30;;;13.90;99.90;;;;;;4982591;28;20489;-51
2022/07/29 04:03:57;;;;;;;5.37;2.60;;;13.90;99.90;;;;;;4994213;28;20504;-51
2022/07/29 04:06:25;;;;;;;12.90;3.17;;;13.90;99.90;;;;;;4999958;28;20499;-51
2022/07/29 04:08:52;;;;;;;13.23;3.23;;;13.90;99.90;;;;;;4996517;28;20961;-51
2022/07/29 04:11:18;;;;;;;4.03;2.40;;;13.90;99.90;;;;;;4990081;28;20516;-52
2022/07/29 04:13:45;;;;;;;13.37;2.83;;;13.90;99.90;;;;;;4990519;28;20547;-52
2022/07/29 04:16:13;;;;;;;2.50;2.30;;;14.00;99.90;;;;;;4991232;28;20980;-52
2022/07/29 04:18:39;;;;;;;4.23;3.10;;;14.00;99.90;;;;;;4993483;28;20456;-53
2022/07/29 04:21:06;;;;;;;4.30;2.23;;;14.00;99.90;;;;;;4993103;28;20644;-52
2022/07/29 04:23:33;;;;;;;9.83;3.00;;;14.00;99.90;;;;;;4993633;28;20510;-51
2022/07/29 04:26:00;;;;;;;26.57;3.90;;;14.00;99.90;;;;;;4994739;28;20555;-52
2022/07/29 04:28:27;;;;;;;26.67;5.10;;;14.00;99.90;;;;;;5010688;28;20905;-51
2022/07/29 04:30:54;;;;;;;24.30;5.27;;;14.00;99.90;;;;;;4993957;28;20503;-52
2022/07/29 04:33:22;;;;;;;6.30;2.83;;;14.00;99.90;;;;;;4992130;28;20904;-51
2022/07/29 04:35:48;;;;;;;12.57;3.10;;;14.10;99.90;;;;;;4996012;28;20515;-51
2022/07/29 04:38:15;;;;;;;10.93;2.97;;;14.10;99.90;;;;;;4996223;28;20460;-51
2022/07/29 04:40:41;;;;;;;10.53;3.03;;;14.00;99.90;;;;;;4996242;28;20506;-51
2022/07/29 04:43:08;;;;;;;12.87;2.70;;;14.10;99.90;;;;;;4991470;28;20515;-52
2022/07/29 04:45:35;;;;;;;26.67;4.00;;;14.10;99.90;;;;;;4993268;28;20464;-52
2022/07/29 04:48:01;;;;;;;28.13;4.40;;;14.10;99.90;;;;;;4994118;28;20496;-51
2022/07/29 04:50:29;;;;;;;28.53;4.60;;;14.10;99.90;;;;;;4996341;28;20482;-51
2022/07/29 04:52:56;;;;;;;20.03;4.00;;;14.10;99.90;;;;;;4998612;28;20507;-52
2022/07/29 04:55:22;;;;;;;27.63;3.30;;;14.10;99.90;;;;;;4999735;28;20492;-51
2022/07/29 04:57:49;;;;;;;14.90;3.33;;;14.20;99.90;;;;;;4993955;28;20461;-52
2022/07/29 05:00:16;;;;;;;9.57;2.60;;;14.20;99.90;;;;;;4989337;28;20500;-51
2022/07/29 05:02:42;;;;;;;19.73;3.80;;;14.20;99.90;;;;;;4993066;28;20504;-53
2022/07/29 05:05:09;;;;;;;14.07;3.60;;;14.20;99.90;;;;;;4993168;28;20472;-54
2022/07/29 05:07:37;;;;;;;20.93;3.43;;;14.30;99.90;;;;;;4994360;28;20476;-53
2022/07/29 05:10:05;;;;;;;29.80;3.30;;;14.30;99.90;;;;;;4991692;28;20488;-52
2022/07/29 05:12:31;;;;;;;6.93;2.53;;;14.40;99.90;;;;;;4992301;28;20570;-53
2022/07/29 05:14:58;;;;;;;30.53;3.70;;;14.40;99.90;;;;;;4991540;28;20492;-53
2022/07/29 05:17:24;;;;;;;28.63;4.70;;;14.50;99.90;;;;;;4991933;28;21041;-55
2022/07/29 05:19:51;;;;;;;28.87;3.27;;;14.60;99.90;;;;;;4993799;28;20453;-53
2022/07/29 05:22:18;;;;;;;10.10;2.50;;;14.60;99.90;;;;;;4998906;28;20543;-53
2022/07/29 05:24:47;;;;;;;34.23;3.70;;;14.80;99.90;;;;;;5008070;28;20475;-53
2022/07/29 05:27:14;;;;;;;18.23;3.90;;;14.90;99.90;;;;;;5001305;28;20969;-52
2022/07/29 05:29:40;;;;;;;8.80;3.17;;;15.00;99.90;;;;;;4999051;28;20487;-53
2022/07/29 05:32:07;;;;;;;18.70;3.07;;;15.20;99.90;;;;;;4995211;28;20519;-52
2022/07/29 05:34:34;;;;;;;26.90;4.77;;;15.20;99.90;;;;;;4994640;28;20507;-52
2022/07/29 05:37:00;;;;;;;17.20;3.43;;;15.30;99.90;;;;;;4985798;28;20488;-53
2022/07/29 05:39:27;;;;;;;14.03;3.10;;;15.30;99.90;;;;;;5002458;28;20542;-53
2022/07/29 05:41:55;;;;;;;8.90;3.30;;;15.40;99.90;;;;;;4986625;28;20461;-53
2022/07/29 05:44:21;;;;;;;5.37;2.83;;;15.40;99.90;;;;;;4992595;28;21022;-53
2022/07/29 05:46:48;;;;;;;8.77;2.83;;;15.50;99.90;;;;;;4993786;28;20441;-50
2022/07/29 05:49:14;;;;;;;8.10;2.67;;;15.50;99.90;;;;;;4997045;28;20504;-51
2022/07/29 05:51:41;;;;;;;25.43;3.40;;;15.60;99.90;;;;;;4986595;28;20957;-51
2022/07/29 05:54:07;;;;;;;12.13;3.10;;;15.60;99.90;;;;;;4991141;28;20526;-51
2022/07/29 05:56:36;;;;;;;15.77;2.93;;;15.70;99.90;;;;;;4991964;28;20457;-51
2022/07/29 05:59:04;;;;;;;17.73;3.43;;;15.70;99.90;;;;;;4993482;28;20472;-51
2022/07/29 06:01:31;;;;;;;27.47;3.77;;;15.70;99.90;;;;;;4989947;28;20489;-51
2022/07/29 06:03:57;;;;;;;5.00;2.80;;;15.70;99.90;;;;;;4998773;28;20582;-51
2022/07/29 06:06:24;;;;;;;7.43;3.43;;;15.80;99.90;;;;;;4993670;28;21826;-51
2022/07/29 06:08:51;;;;;;;6.30;2.90;;;15.80;99.90;;;;;;4993477;28;20543;-50
2022/07/29 06:11:18;;;;;;;13.23;3.30;;;15.90;99.90;;;;;;4991261;28;20507;-51
2022/07/29 06:13:44;;;;;;;9.53;2.97;;;15.90;99.90;;;;;;4990761;28;20590;-52
2022/07/29 06:16:12;;;;;;;23.87;3.90;;;16.00;99.90;;;;;;4991473;28;21045;-50
2022/07/29 06:18:39;;;;;;;30.60;3.83;;;16.10;99.90;;;;;;5001394;28;20460;-50
2022/07/29 06:21:09;;;;;;;25.63;4.37;;;16.20;99.90;;;;;;4995283;28;20556;-49
2022/07/29 06:23:36;;;;;;;12.33;3.73;;;16.20;99.90;;;;;;4988312;28;20499;-50
2022/07/29 06:26:02;;;;;;;17.33;3.20;;;16.30;99.90;;;;;;4990992;28;20464;-50
2022/07/29 06:28:29;;;;;;;16.30;2.83;;;16.40;99.90;;;;;;4989749;28;20496;-50
2022/07/29 06:30:56;;;;;;;15.40;2.57;;;16.50;99.90;;;;;;4991386;28;20559;-50
2022/07/29 06:33:24;;;;;;;24.80;4.27;;;16.50;21.80;;;;;;4988565;28;20512;-50
2022/07/29 06:35:50;;;;;;;25.33;3.87;;;16.60;25.00;;;;;;4988549;28;20504;-50
2022/07/29 06:38:17;;;;;;;17.07;3.40;;;16.60;30.20;;;;;;4994000;28;20469;-51
2022/07/29 06:41:03;;;;;;;12.87;3.80;;;16.60;30.70;;;;;;4987765;28;20492;-50
2022/07/29 06:43:33;;;;;;;24.73;3.30;;;16.70;28.90;;;;;;4983399;28;20472;-50
2022/07/29 06:46:01;;;;;;;16.23;3.60;;;16.70;26.60;;;;;;4991315;28;20511;-50
2022/07/29 06:48:30;;;;;;;22.73;3.20;;;16.70;26.80;;;;;;4993235;28;20456;-52
2022/07/29 06:50:57;;;;;;;6.90;3.30;;;16.80;26.40;;;;;;4986925;28;21040;-50
2022/07/29 06:53:23;;;;;;;7.77;2.70;;;16.80;30.40;;;;;;4997868;28;20547;-50
2022/07/29 06:55:50;;;;;;;6.00;3.17;;;16.90;33.10;;;;;;4991015;28;20921;-50
2022/07/29 06:58:19;;;;;;;8.00;2.93;;;16.90;29.70;;;;;;4991690;28;20464;-52
2022/07/29 07:00:47;;;;;;;7.83;2.90;;;17.00;29.30;;;;;;4987282;28;20456;-51
2022/07/29 07:03:14;;;;;;;6.20;2.60;;;17.10;28.00;;;;;;5006315;28;20488;-50
2022/07/29 07:05:42;;;;;;;4.60;2.47;;;17.10;25.30;;;;;;4990503;28;20460;-51
2022/07/29 07:08:08;;;;;;;6.73;2.50;;;17.20;31.60;;;;;;4990773;28;20460;-49
2022/07/29 07:10:35;;;;;;;9.10;2.70;;;17.20;43.60;;;;;;4988700;28;20457;-52
2022/07/29 07:13:02;;;;;;;5.60;2.30;;;17.30;40.70;;;;;;4990247;28;20527;-50
2022/07/29 07:15:28;;;;;;;6.30;2.83;;;17.40;40.50;;;;;;4991959;28;20506;-51
2022/07/29 07:17:55;;;;;;;8.70;2.73;;;17.50;38.80;;;;;;5001139;28;20483;-49
2022/07/29 07:20:21;;;;;;;4.60;1.90;;;17.50;43.20;;;;;;5011022;28;20871;-51
2022/07/29 07:22:49;;;;;;;3.57;2.37;;;17.60;45.00;;;;;;4997965;28;20484;-50
2022/07/29 07:25:17;;;;;;;6.80;2.70;;;17.70;52.70;;;;;;4987072;28;20990;-49
2022/07/29 07:27:43;;;;;;;14.00;3.07;;;17.80;52.30;;;;;;5000238;28;20892;-50
2022/07/29 07:30:11;;;;;;;8.10;2.20;;;17.80;58.90;;;;;;4987027;28;20587;-51
2022/07/29 07:32:37;;;;;;;9.63;2.70;;;17.90;59.80;;;;;;5002982;28;21024;-50
2022/07/29 07:35:05;;;;;;;4.83;2.80;;;18.00;58.00;;;;;;4993789;28;20489;-50
2022/07/29 07:37:32;;;;;;;6.33;2.67;;;18.00;65.50;;;;;;4990556;28;20500;-51
2022/07/29 07:40:00;;;;;;;4.20;2.47;;;18.10;69.50;;;;;;4992870;28;20495;-51
2022/07/29 07:42:28;;;;;;;5.67;2.37;;;18.20;69.20;;;;;;4988113;28;20483;-50
2022/07/29 07:44:54;;;;;;;8.03;2.77;;;18.30;68.20;;;;;;5000561;28;20441;-51
2022/07/29 07:47:21;;;;;;;6.50;2.43;;;18.40;70.90;;;;;;5005025;28;20491;-50
2022/07/29 07:49:47;;;;;;;4.70;2.70;;;18.50;70.90;;;;;;5000096;28;20503;-51
2022/07/29 07:52:15;;;;;;;4.43;2.20;;;18.70;77.70;;;;;;5004553;28;20496;-50
2022/07/29 07:54:42;;;;;;;8.60;2.70;;;18.90;81.50;;;;;;4987664;28;20951;-51
2022/07/29 07:57:10;;;;;;;3.17;2.27;;;19.00;95.80;;;;;;4992779;28;20463;-51
2022/07/29 07:59:37;;;;;;;3.03;2.37;;;19.40;99.90;;;;;;4996212;28;20463;-51
2022/07/29 08:02:04;;;;;;;3.40;2.27;;;19.60;99.90;;;;;;4994187;28;20542;-51
2022/07/29 08:04:31;;;;;;;2.50;2.17;;;19.80;99.90;;;;;;4995089;28;20515;-51
2022/07/29 08:06:58;;;;;;;5.40;2.77;;;20.00;99.90;;;;;;4993061;28;20488;-51
2022/07/29 08:09:26;;;;;;;4.33;2.13;;;20.20;99.90;;;;;;4991539;28;20468;-50
2022/07/29 08:11:53;;;;;;;5.30;2.83;;;20.30;99.90;;;;;;4988762;28;20488;-50
2022/07/29 08:14:22;;;;;;;2.70;2.27;;;20.40;99.90;;;;;;4989451;28;20515;-51
2022/07/29 08:16:49;;;;;;;5.20;2.80;;;20.60;99.90;;;;;;4990549;28;20499;-51
2022/07/29 08:19:15;;;;;;;5.47;3.70;;;20.90;99.90;;;;;;4997451;28;21154;-51
2022/07/29 08:21:42;;;;;;;9.37;2.30;;;21.10;99.90;;;;;;4989785;28;20978;-50
2022/07/29 08:26:53;;;;;;;2.97;2.13;;;21.50;99.90;;;;;;4996280;28;20565;-51
2022/07/29 08:29:20;;;;;;;2.40;2.20;;;21.60;99.90;;;;;;4992335;28;20488;-51
2022/07/29 08:31:47;;;;;;;2.50;2.03;;;21.60;99.90;;;;;;4991185;28;20476;-51
2022/07/29 08:34:14;;;;;;;7.60;2.57;;;21.70;99.90;;;;;;4990990;28;20484;-51
2022/07/29 08:36:41;;;;;;;9.00;1.93;;;21.80;99.90;;;;;;4991303;28;20975;-52
2022/07/29 08:39:08;;;;;;;6.03;1.93;;;21.90;99.90;;;;;;4991417;28;20460;-51
2022/07/29 08:41:35;;;;;;;11.97;3.23;;;22.00;99.90;;;;;;4998655;28;20460;-51
2022/07/29 08:44:02;;;;;;;5.03;2.30;;;22.10;99.90;;;;;;4989331;28;20478;-52
2022/07/29 08:46:30;;;;;;;4.70;2.40;;;22.40;99.90;;;;;;4994223;28;20549;-51
2022/07/29 08:48:57;;;;;;;2.83;1.90;;;22.50;99.90;;;;;;5002530;28;20881;-51
2022/07/29 08:51:26;;;;;;;3.43;2.10;;;22.80;99.90;;;;;;4991337;28;20496;-51
2022/07/29 08:53:53;;;;;;;3.97;3.00;;;22.90;99.90;;;;;;4984855;28;20978;-51
2022/07/29 08:56:21;;;;;;;8.97;2.77;;;23.00;99.90;;;;;;5000862;28;20468;-52
2022/07/29 08:58:48;;;;;;;6.63;2.07;;;23.20;99.90;;;;;;4999665;28;20476;-52
2022/07/29 09:01:18;;;;;;;4.10;2.17;;;23.30;99.90;;;;;;4998186;28;20487;-52
2022/07/29 09:03:47;;;;;;;1.90;1.80;;;23.50;99.90;;;;;;4994274;28;20535;-52
2022/07/29 09:06:14;;;;;;;13.43;2.30;;;23.70;99.90;;;;;;4992438;28;20488;-51
2022/07/29 09:08:42;;;;;;;9.23;1.70;;;23.90;99.90;;;;;;4992195;28;20488;-51
2022/07/29 09:11:09;;;;;;;5.90;2.20;;;24.30;99.90;;;;;;5002492;28;20740;-51
2022/07/29 09:13:36;;;;;;;10.63;2.57;;;24.80;99.90;;;;;;4996759;28;20487;-51
2022/07/29 09:16:03;;;;;;;19.63;2.40;;;25.20;99.90;;;;;;4994242;28;20460;-51
2022/07/29 09:18:37;;;;;;;1.60;1.50;;;25.40;99.90;;;;;;5005663;28;20502;-51
2022/07/29 09:24:01;;;;;;;6.77;2.33;;;25.30;99.90;;;;;;4990979;28;20491;-51
2022/07/29 09:26:30;;;;;;;2.40;1.80;;;25.50;99.90;;;;;;5041895;22;20888;-54
2022/07/29 09:28:57;;;;;;;1.63;1.53;;;25.60;99.90;;;;;;5052843;28;20811;-54
2022/07/29 09:31:34;;;;;;;11.63;2.70;;;25.50;99.90;;;;;;5046679;28;21034;-54
2022/07/29 09:34:01;;;;;;;8.53;1.93;;;25.40;99.90;;;;;;5049346;28;20481;-54
2022/07/29 09:36:29;;;;;;;2.90;1.57;;;25.60;99.90;;;;;;5051117;28;20488;-54
2022/07/29 09:38:59;;;;;;;10.23;1.97;;;25.30;99.90;;;;;;5053400;28;20458;-54
2022/07/29 09:41:26;;;;;;;3.53;1.77;;;25.30;99.90;;;;;;5048628;28;20462;-54
2022/07/29 09:43:56;;;;;;;1.90;1.50;;;25.20;99.90;;;;;;5053808;28;20487;-54
2022/07/29 09:46:24;;;;;;;3.10;1.73;;;25.30;99.90;;;;;;5044967;28;21059;-53
2022/07/29 09:49:07;;;;;;;5.77;1.80;;;25.50;99.90;;;;;;5052033;28;20488;-54
2022/07/29 09:51:35;;;;;;;3.90;1.10;;;25.50;99.90;;;;;;5046005;28;20458;-53
2022/07/29 09:54:04;;;;;;;6.10;1.50;;;25.60;99.90;;;;;;5052410;28;20728;-54
2022/07/29 09:56:41;;;;;;;4.67;2.00;;;25.60;99.90;;;;;;5049782;28;20485;-54
2022/07/29 09:59:08;;;;;;;6.87;1.83;;;25.70;99.90;;;;;;5052325;28;20468;-54
2022/07/29 10:01:35;;;;;;;4.00;1.40;;;25.60;99.90;;;;;;5046492;28;20544;-54
2022/07/29 10:04:02;;;;;;;3.33;1.70;;;25.40;99.90;;;;;;5053217;28;20504;-54
2022/07/29 10:06:29;;;;;;;11.63;1.17;;;25.10;99.90;;;;;;5050066;28;20510;-54
2022/07/29 10:09:08;;;;;;;9.77;2.07;;;25.20;99.90;;;;;;5054296;28;20488;-54
2022/07/29 10:11:35;;;;;;;6.93;1.83;;;25.50;99.90;;;;;;5045725;28;20556;-54
2022/07/29 10:14:04;;;;;;;2.77;1.70;;;25.60;99.90;;;;;;5051218;28;20488;-54
2022/07/29 10:16:33;;;;;;;16.83;1.73;;;25.80;99.90;;;;;;5044456;28;20481;-53
2022/07/29 10:19:01;;;;;;;3.07;1.17;;;26.00;99.90;;;;;;5051727;28;20458;-54
2022/07/29 10:21:28;;;;;;;4.07;1.50;;;26.10;99.90;;;;;;5050686;28;20457;-54
2022/07/29 10:23:54;;;;;;;5.60;1.30;;;26.20;99.90;;;;;;5049112;28;20947;-54
2022/07/29 10:26:22;;;;;;;1.30;1.20;;;26.10;99.90;;;;;;5050667;28;20512;-54
2022/07/29 10:28:49;;;;;;;2.33;1.50;;;26.30;99.90;;;;;;5051746;28;20442;-53
2022/07/29 10:31:27;;;;;;;4.70;1.50;;;26.20;99.90;;;;;;5050852;28;20903;-55
2022/07/29 10:34:03;;;;;;;6.10;1.83;;;26.30;99.90;;;;;;5052763;28;20539;-53
2022/07/29 10:36:44;;;;;;;1.93;1.30;;;26.20;99.90;;;;;;5047809;28;20646;-54
2022/07/29 10:39:23;;;;;;;4.63;1.73;;;25.90;99.90;;;;;;5050698;28;20519;-54
2022/07/29 10:42:10;;;;;;;11.50;1.43;;;25.90;99.90;;;;;;5048131;28;20512;-54
2022/07/29 10:44:40;;;;;;;1.70;1.50;;;26.00;99.90;;;;;;5051775;28;20826;-54
2022/07/29 10:47:07;;;;;;;2.10;1.30;;;26.10;99.90;;;;;;5050968;28;20490;-53
2022/07/29 10:49:33;;;;;;;2.73;1.20;;;25.80;99.90;;;;;;5051252;28;20492;-54
2022/07/29 10:52:05;;;;;;;7.50;2.03;;;25.90;99.90;;;;;;5047510;28;20462;-54
2022/07/29 10:54:47;;;;;;;17.70;1.60;;;25.60;99.90;;;;;;5045967;28;21022;-54
2022/07/29 10:57:21;;;;;;;5.13;1.90;;;25.40;99.90;;;;;;5043812;28;20457;-55
2022/07/29 10:59:49;;;;;;;3.83;1.33;;;25.40;99.90;;;;;;5043927;28;20457;-55
2022/07/29 11:02:42;;;;;;;2.13;1.40;;;25.30;99.90;;;;;;5049758;28;20457;-55
2022/07/29 11:05:09;;;;;;;1.63;1.23;;;25.30;99.90;;;;;;5048166;28;20486;-54
2022/07/29 11:07:38;;;;;;;5.37;2.90;;;25.40;99.90;;;;;;5050716;28;20458;-54
2022/07/29 11:10:24;;;;;;;5.63;1.43;;;25.60;99.90;;;;;;5051990;28;20474;-54
2022/07/29 11:12:52;;;;;;;2.93;2.10;;;25.70;99.90;;;;;;5047582;28;20558;-54
2022/07/29 11:15:20;;;;;;;4.73;1.37;;;25.70;99.90;;;;;;5052011;28;20466;-54
2022/07/29 11:18:07;;;;;;;3.43;1.70;;;25.60;99.90;;;;;;5050585;28;20828;-54
2022/07/29 11:20:36;;;;;;;2.90;1.60;;;25.70;99.90;;;;;;5047065;28;20461;-55
2022/07/29 11:23:19;;;;;;;5.93;1.73;;;25.70;99.90;;;;;;5049660;28;20453;-54
2022/07/29 11:25:46;;;;;;;1.57;1.10;;;25.90;99.90;;;;;;5046247;28;20485;-53
2022/07/29 11:28:20;;;;;;;4.90;1.87;;;26.20;99.90;;;;;;5049931;28;20946;-54
2022/07/29 11:30:51;;;;;;;4.83;1.10;;;26.30;99.90;;;;;;5048301;28;20458;-53
2022/07/29 11:33:31;;;;;;;7.40;1.57;;;26.60;99.90;;;;;;5048477;28;20501;-54
2022/07/29 11:36:11;;;;;;;5.90;1.70;;;26.50;99.90;;;;;;5057057;28;20477;-53
2022/07/29 11:38:38;;;;;;;2.30;1.50;;;26.30;99.90;;;;;;5049401;28;20453;-53
2022/07/29 11:41:24;;;;;;;1.47;1.37;;;26.10;99.90;;;;;;5047248;28;20450;-54
2022/07/29 11:43:53;;;;;;;2.40;1.40;;;26.20;99.90;;;;;;5044292;28;20454;-53
2022/07/29 11:46:48;;;;;;;6.73;1.83;;;26.30;99.90;;;;;;5051297;28;20462;-53
2022/07/29 11:49:20;;;;;;;6.27;1.60;;;26.50;99.90;;;;;;5042758;28;20501;-54
2022/07/29 11:51:51;;;;;;;3.83;1.50;;;26.70;99.90;;;;;;5051597;28;20543;-53
2022/07/29 11:54:32;;;;;;;1.50;1.40;;;26.70;99.90;;;;;;5052551;28;20478;-54
2022/07/29 11:57:00;;;;;;;1.63;1.43;;;27.00;99.90;;;;;;5048117;28;20556;-54
2022/07/29 11:59:29;;;;;;;2.67;1.43;;;27.10;99.90;;;;;;5049094;28;21008;-54
2022/07/29 12:01:57;;;;;;;3.27;1.97;;;27.30;99.90;;;;;;5048803;28;20834;-53
2022/07/29 12:04:24;;;;;;;4.10;1.67;;;27.30;99.90;;;;;;5049210;28;20497;-54
2022/07/29 12:06:51;;;;;;;1.33;1.23;;;27.10;99.90;;;;;;5045456;28;20993;-53
2022/07/29 12:09:18;;;;;;;4.60;1.70;;;27.20;99.90;;;;;;5049710;28;20828;-53
2022/07/29 12:11:45;;;;;;;2.17;1.67;;;27.20;99.90;;;;;;5046780;28;20542;-55
2022/07/29 12:14:25;;;;;;;3.80;1.67;;;27.40;99.90;;;;;;5048545;28;20515;-53
2022/07/29 12:16:53;;;;;;;4.57;2.00;;;27.30;99.90;;;;;;5051877;28;20479;-54
2022/07/29 12:19:20;;;;;;;4.23;1.90;;;27.30;99.90;;;;;;5050552;28;20490;-53
2022/07/29 12:21:47;;;;;;;3.30;1.90;;;27.10;99.90;;;;;;5046342;28;20491;-53
2022/07/29 12:24:14;;;;;;;3.30;2.10;;;27.10;99.90;;;;;;5048857;28;20507;-54
2022/07/29 12:26:50;;;;;;;12.80;1.87;;;27.30;99.90;;;;;;5049943;28;20523;-54
2022/07/29 12:29:17;;;;;;;3.27;2.00;;;27.20;99.90;;;;;;5051603;28;20832;-54
2022/07/29 12:31:44;;;;;;;3.23;1.90;;;27.40;99.90;;;;;;5056933;28;20817;-54
2022/07/29 12:34:14;;;;;;;10.13;1.83;;;27.20;99.90;;;;;;5053134;28;20477;-53
2022/07/29 12:36:42;;;;;;;3.83;2.00;;;27.10;99.90;;;;;;5049691;28;20469;-55
2022/07/29 12:39:09;;;;;;;2.90;1.80;;;27.20;99.90;;;;;;5054145;28;20446;-55
2022/07/29 12:41:36;;;;;;;2.20;1.77;;;27.30;99.90;;;;;;5049626;28;20819;-54
2022/07/29 12:44:03;;;;;;;7.53;2.00;;;27.30;99.90;;;;;;5053084;28;20939;-53
2022/07/29 12:46:29;;;;;;;4.60;2.33;;;27.40;99.90;;;;;;5054446;28;20539;-54
2022/07/29 12:48:57;;;;;;;5.17;1.97;;;27.60;99.90;;;;;;5050664;28;20478;-54
2022/07/29 12:51:31;;;;;;;6.40;2.03;;;27.90;99.90;;;;;;5051679;28;20544;-53
2022/07/29 12:54:06;;;;;;;5.57;1.97;;;28.00;99.90;;;;;;5051252;28;21029;-53
2022/07/29 12:56:33;;;;;;;3.37;1.90;;;28.20;99.90;;;;;;5053705;28;20489;-54
2022/07/29 12:59:00;;;;;;;1.77;1.67;;;28.10;99.90;;;;;;5053017;28;20521;-54
2022/07/29 13:01:27;;;;;;;7.27;2.53;;;28.10;99.90;;;;;;5052084;28;20550;-53